Time;durP1;ratioP1;P1;durP2;ratioP2;P2;SDS_P1;SDS_P2;PMS_P1;PMS_P2;Temp;Humidity;BMP_temperature;BMP_pressure;BME280_temperature;BME280_humidity;BME280_pressure;Samples;Min_cycle;Max_cycle;Signal;HPM_P1;HPM_P2
2022/09/27 00:01:40;;;;;;;10.15;3.80;;;;;;;-146.58;100.00;69501.63;4991865;28;20026;-66
2022/09/27 00:04:05;;;;;;;5.55;2.75;;;;;;;-146.58;100.00;69501.63;4990286;28;20042;-67
2022/09/27 00:06:31;;;;;;;11.95;3.75;;;;;;;-146.58;100.00;69501.63;4992303;28;20492;-67
2022/09/27 00:08:57;;;;;;;5.35;2.90;;;;;;;-146.58;100.00;69501.63;4989791;28;20484;-68
2022/09/27 00:11:32;;;;;;;12.45;4.65;;;;;;;-146.58;100.00;69501.63;4991739;28;20022;-67
2022/09/27 00:13:59;;;;;;;13.32;3.25;;;;;;;-146.58;100.00;69501.63;4990604;28;20038;-68
2022/09/27 00:16:26;;;;;;;10.85;3.25;;;;;;;-146.58;100.00;69501.63;4991322;28;20037;-68
2022/09/27 00:18:52;;;;;;;8.05;3.33;;;;;;;-146.58;100.00;69501.63;4990434;28;20096;-67
2022/09/27 00:21:17;;;;;;;13.38;4.65;;;;;;;-146.58;100.00;69501.63;4991672;28;20026;-66
2022/09/27 00:23:43;;;;;;;15.02;3.63;;;;;;;-146.58;100.00;69501.63;4990198;28;20042;-64
2022/09/27 00:26:11;;;;;;;10.63;3.50;;;;;;;-146.58;100.00;69501.63;4991786;28;20022;-64
2022/09/27 00:28:36;;;;;;;;;;;;;;;-146.58;100.00;69501.63;4990559;28;20062;-64
2022/09/27 00:31:02;;;;;;;11.37;3.40;;;;;;;-146.58;100.00;69501.63;4990783;28;20385;-64
2022/09/27 00:33:27;;;;;;;6.00;2.38;;;;;;;-146.58;100.00;69501.63;4990762;28;20430;-64
2022/09/27 00:35:53;;;;;;;11.13;2.80;;;;;;;-146.58;100.00;69501.63;4991624;28;20023;-64
2022/09/27 00:38:19;;;;;;;10.32;3.00;;;;;;;-146.58;100.00;69501.63;4989161;28;20133;-65
2022/09/27 00:40:44;;;;;;;10.40;2.90;;;;;;;-146.58;100.00;69501.63;4991812;28;20046;-65
2022/09/27 00:43:17;;;;;;;7.03;2.35;;;;;;;-146.58;100.00;69501.63;4991520;28;20378;-64
2022/09/27 00:45:51;;;;;;;9.52;2.00;;;;;;;-146.58;100.00;69501.63;4970570;28;20055;-65
2022/09/27 00:48:22;;;;;;;7.18;2.15;;;;;;;-146.58;100.00;69501.63;4970485;28;20117;-63
2022/09/27 00:50:54;;;;;;;9.40;2.35;;;;;;;-146.58;100.00;69501.63;4972389;28;20031;-63
2022/09/27 00:53:30;;;;;;;8.73;4.07;;;;;;;-146.58;100.00;69501.63;4970155;28;20042;-62
2022/09/27 00:56:01;;;;;;;3.90;2.38;;;;;;;-146.58;100.00;69501.63;4972002;28;20602;-62
2022/09/27 00:58:31;;;;;;;4.43;2.20;;;;;;;-146.58;100.00;69501.63;4972430;28;20050;-62
2022/09/27 01:01:01;;;;;;;3.80;1.92;;;;;;;-146.58;100.00;69501.63;4991072;28;20034;-62
2022/09/27 01:03:44;;;;;;;9.90;4.03;;;;;;;-146.58;100.00;69501.63;4990408;28;20033;-62
2022/09/27 01:06:11;;;;;;;2.80;2.05;;;;;;;-146.58;100.00;69501.63;4991106;28;20045;-62
2022/09/27 01:08:36;;;;;;;1.92;1.70;;;;;;;-146.58;100.00;69501.63;4989226;28;20549;-62
2022/09/27 01:11:13;;;;;;;3.20;2.10;;;;;;;-146.58;100.00;69501.63;4992993;28;20061;-62
2022/09/27 01:13:58;;;;;;;7.32;2.38;;;;;;;-146.58;100.00;69501.63;4993916;28;20045;-62
2022/09/27 01:16:44;;;;;;;7.72;2.30;;;;;;;-146.58;100.00;69501.63;4994280;28;20026;-62
2022/09/27 01:19:30;;;;;;;5.35;2.55;;;;;;;-146.58;100.00;69501.63;4993644;28;20038;-62
2022/09/27 01:22:04;;;;;;;8.75;3.20;;;;;;;-146.58;100.00;69501.63;4994954;28;20144;-62
2022/09/27 01:25:10;;;;;;;15.13;3.35;;;;;;;-146.58;100.00;69501.63;4993067;28;20049;-61
2022/09/27 01:27:58;;;;;;;7.95;3.13;;;;;;;-146.58;100.00;69501.63;4995112;28;20072;-66
2022/09/27 01:30:43;;;;;;;9.02;3.17;;;;;;;-146.58;100.00;69501.63;4992815;28;20603;-66
2022/09/27 01:33:26;;;;;;;5.82;2.55;;;;;;;-146.58;100.00;69501.63;4994666;28;20038;-65
2022/09/27 01:36:06;;;;;;;12.85;2.90;;;;;;;-146.58;100.00;69501.63;4993509;28;20383;-66
2022/09/27 01:38:56;;;;;;;5.20;3.17;;;;;;;-146.58;100.00;69501.63;4992945;28;20042;-65
2022/09/27 01:41:45;;;;;;;10.80;3.50;;;;;;;-146.58;100.00;69501.63;4994398;28;20081;-66
2022/09/27 01:44:32;;;;;;;23.60;4.82;;;;;;;-146.58;100.00;69501.63;4992956;28;20049;-66
2022/09/27 01:47:02;;;;;;;7.82;4.18;;;;;;;-146.58;100.00;69501.63;4994177;28;20034;-66
2022/09/27 01:49:46;;;;;;;5.63;2.80;;;;;;;-146.58;100.00;69501.63;4992963;28;20050;-66
2022/09/27 01:52:17;;;;;;;6.70;2.58;;;;;;;-146.58;100.00;69501.63;4993972;28;20050;-66
2022/09/27 01:54:46;;;;;;;12.77;4.78;;;;;;;-146.58;100.00;69501.63;4992898;28;20044;-66
2022/09/27 01:57:18;;;;;;;11.15;2.85;;;;;;;-146.58;100.00;69501.63;4993994;28;20026;-66
2022/09/27 01:59:53;;;;;;;8.73;2.60;;;;;;;-146.58;100.00;69501.63;4992565;28;20100;-66
2022/09/27 02:02:23;;;;;;;7.68;3.67;;;;;;;-146.58;100.00;69501.63;4994334;28;20026;-66
2022/09/27 02:04:54;;;;;;;9.75;3.25;;;;;;;-146.58;100.00;69501.63;4992667;28;20513;-66
2022/09/27 02:07:24;;;;;;;5.35;2.05;;;;;;;-146.58;100.00;69501.63;4993507;28;20037;-66
2022/09/27 02:09:58;;;;;;;8.70;4.20;;;;;;;-146.58;100.00;69501.63;4992453;28;20058;-65
2022/09/27 02:12:30;;;;;;;12.25;3.10;;;;;;;10.15;100.00;163219.28;4994018;28;20026;-66
2022/09/27 02:15:00;;;;;;;9.90;2.70;;;;;;;9.53;100.00;163057.38;4992242;28;20049;-65
2022/09/27 02:17:52;;;;;;;9.15;1.95;;;;;;;9.47;100.00;163041.22;4993779;28;20081;-65
2022/09/27 02:20:21;;;;;;;4.85;2.25;;;;;;;9.42;100.00;163027.69;4992257;28;20039;-65
2022/09/27 02:22:53;;;;;;;3.55;1.80;;;;;;;9.40;100.00;163020.94;4993346;28;20027;-65
2022/09/27 02:25:48;;;;;;;4.45;2.90;;;;;;;9.33;100.00;163003.44;4992012;28;20501;-65
2022/09/27 02:28:25;;;;;;;3.40;2.45;;;;;;;9.29;100.00;162992.63;4982891;28;20521;-65
2022/09/27 02:30:50;;;;;;;6.22;2.28;;;;;;;9.27;100.00;162987.28;4991991;28;20560;-65
2022/09/27 02:33:20;;;;;;;4.32;1.70;;;;;;;9.23;100.00;162976.44;4992124;28;20038;-64
2022/09/27 02:35:45;;;;;;;17.63;6.28;;;;;;;-146.58;100.00;69501.63;4993614;28;20037;-65
2022/09/27 02:38:11;;;;;;;3.78;2.85;;;;;;;-146.58;100.00;69501.63;4992906;28;20018;-65
2022/09/27 02:40:43;;;;;;;4.63;1.95;;;;;;;-146.58;100.00;69501.63;4992108;28;20062;-65
2022/09/27 02:43:08;;;;;;;2.92;1.67;;;;;;;-146.58;100.00;69501.63;4993475;28;20101;-65
2022/09/27 02:45:53;;;;;;;5.78;2.88;;;;;;;9.19;100.00;162968.38;4991729;28;20434;-65
2022/09/27 02:48:49;;;;;;;13.30;3.33;;;;;;;9.06;100.00;162933.28;4991723;28;20157;-64
2022/09/27 02:51:33;;;;;;;5.57;2.25;;;;;;;9.06;100.00;162933.28;4992741;28;20046;-63
2022/09/27 02:54:15;;;;;;;6.70;1.75;;;;;;;9.07;100.00;162934.66;4991716;28;20042;-63
2022/09/27 02:57:12;;;;;;;3.60;2.10;;;;;;;9.03;100.00;162925.22;4993385;28;20038;-62
2022/09/27 03:00:00;;;;;;;6.07;2.10;;;;;;;9.04;100.00;162927.94;4991533;28;20520;-62
2022/09/27 03:02:40;;;;;;;10.40;5.55;;;;;;;8.99;100.00;162914.41;4993349;28;20029;-62
2022/09/27 03:05:11;;;;;;;19.13;3.30;;;;;;;8.95;100.00;162903.66;4991560;28;20065;-63
2022/09/27 03:07:37;;;;;;;3.25;1.48;;;;;;;8.91;100.00;162892.81;4992773;28;20026;-62
2022/09/27 03:10:03;;;;;;;4.68;1.88;;;;;;;8.88;100.00;162887.47;4990446;28;20137;-62
2022/09/27 03:12:28;;;;;;;2.15;1.65;;;;;;;8.88;100.00;162887.47;4993339;28;20060;-62
2022/09/27 03:14:56;;;;;;;1.92;1.67;;;;;;;8.85;100.00;162878.03;4990960;28;20038;-63
2022/09/27 03:17:22;;;;;;;5.20;1.98;;;;;;;8.81;100.00;162868.59;4992592;28;20110;-62
2022/09/27 03:19:47;;;;;;;4.20;1.80;;;;;;;8.76;100.00;162853.75;4991536;28;20556;-64
2022/09/27 03:22:12;;;;;;;3.83;1.52;;;;;;;8.76;100.00;162855.09;4992160;28;20034;-65
2022/09/27 03:24:38;;;;;;;7.82;1.58;;;;;;;8.74;100.00;162849.72;4991218;28;20038;-66
2022/09/27 03:27:03;;;;;;;1.98;1.60;;;;;;;8.72;100.00;162844.31;4992629;28;20029;-65
2022/09/27 03:29:28;;;;;;;3.30;2.42;;;;;;;8.66;100.00;162829.47;4990778;28;20054;-66
2022/09/27 03:31:54;;;;;;;3.05;1.40;;;;;;;8.61;100.00;162816.00;4992466;28;20406;-65
2022/09/27 03:34:19;;;;;;;2.88;1.52;;;;;;;8.55;100.00;162801.16;4990400;28;20038;-66
2022/09/27 03:36:44;;;;;;;2.08;1.30;;;;;;;8.50;100.00;162787.72;4992053;28;20030;-65
2022/09/27 03:39:10;;;;;;;4.93;2.30;;;;;;;8.47;100.00;162779.59;4990630;28;20046;-65
2022/09/27 03:41:35;;;;;;;2.42;1.92;;;;;;;-146.58;100.00;69501.63;4992738;28;20038;-66
2022/09/27 03:44:00;;;;;;;7.43;3.70;;;;;;;8.46;100.00;162776.84;4990126;28;20042;-66
2022/09/27 03:46:26;;;;;;;3.40;2.30;;;;;;;8.40;100.00;162760.69;4992543;28;20026;-65
2022/09/27 03:48:51;;;;;;;6.07;1.80;;;;;;;8.39;100.00;162757.97;4990753;28;20042;-66
2022/09/27 03:51:16;;;;;;;5.10;2.10;;;;;;;8.35;100.00;162748.53;4991808;28;20026;-66
2022/09/27 03:53:42;;;;;;;7.32;1.95;;;;;;;8.35;100.00;162747.22;4990642;28;20046;-66
2022/09/27 03:56:08;;;;;;;6.07;2.05;;;;;;;8.35;100.00;162747.22;4992047;28;20026;-66
2022/09/27 03:58:34;;;;;;;5.15;2.75;;;;;;;8.32;100.00;162739.09;4990435;28;20018;-66
2022/09/27 04:00:59;;;;;;;12.07;5.03;;;;;;;8.30;100.00;162735.06;4991768;28;20026;-66
2022/09/27 04:03:25;;;;;;;3.13;2.33;;;;;;;8.33;100.00;162741.81;4990709;28;20026;-66
2022/09/27 04:05:51;;;;;;;4.45;2.35;;;;;;;8.34;100.00;162744.50;4991918;28;20022;-66
2022/09/27 04:08:17;;;;;;;4.60;2.38;;;;;;;8.42;100.00;162766.09;4990014;28;20053;-66
2022/09/27 04:10:42;;;;;;;6.07;3.13;;;;;;;8.35;100.00;162747.22;4992131;28;20045;-66
2022/09/27 04:13:08;;;;;;;6.15;2.50;;;;;;;8.43;100.00;162768.78;4990923;28;20076;-66
2022/09/27 04:15:33;;;;;;;5.22;2.35;;;;;;;8.45;100.00;162774.13;4990382;28;20054;-66
2022/09/27 04:17:59;;;;;;;5.25;3.10;;;;;;;8.52;100.00;162793.09;4991893;28;20022;-64
2022/09/27 04:20:24;;;;;;;4.47;2.90;;;;;;;8.59;100.00;162809.28;4990102;28;20502;-64
2022/09/27 04:22:50;;;;;;;6.88;3.22;;;;;;;8.66;100.00;162828.16;4991891;28;20030;-65
2022/09/27 04:25:15;;;;;;;3.85;3.38;;;;;;;8.68;100.00;162833.50;4990111;28;20038;-63
2022/09/27 04:27:45;;;;;;;8.05;3.33;;;;;;;8.74;100.00;162849.72;4991431;28;20030;-59
2022/09/27 04:30:10;;;;;;;7.65;2.65;;;;;;;8.75;100.00;162852.38;4989864;28;20054;-63
2022/09/27 04:32:43;;;;;;;8.48;3.15;;;;;;;8.71;100.00;162841.63;4991650;28;20052;-66
2022/09/27 04:37:54;;;;;;;9.02;3.50;;;;;;;8.79;100.00;162861.81;4991480;28;20449;-66
2022/09/27 04:40:21;;;;;;;7.70;4.32;;;;;;;8.81;100.00;162867.22;4989617;28;20047;-66
2022/09/27 04:42:47;;;;;;;3.97;2.65;;;;;;;8.81;100.00;162868.59;4991386;28;20041;-66
2022/09/27 04:45:12;;;;;;;11.93;2.90;;;;;;;8.85;100.00;162878.03;4991947;28;20125;-66
2022/09/27 04:47:43;;;;;;;3.30;2.75;;;;;;;8.83;100.00;162873.94;4995596;28;20022;-66
2022/09/27 04:50:08;;;;;;;10.30;3.22;;;;;;;8.86;100.00;162882.06;4993477;28;20569;-64
2022/09/27 04:52:34;;;;;;;6.93;3.25;;;;;;;8.96;100.00;162907.69;4995294;28;20030;-62
2022/09/27 04:54:59;;;;;;;3.55;3.00;;;;;;;9.02;100.00;162922.53;4993840;28;20054;-64
2022/09/27 04:57:24;;;;;;;5.28;3.05;;;;;;;9.04;100.00;162927.94;4995510;28;20022;-64
2022/09/27 04:59:50;;;;;;;6.55;3.17;;;;;;;9.01;100.00;162921.16;4993807;28;20053;-65
2022/09/27 05:02:15;;;;;;;8.40;2.70;;;;;;;9.01;100.00;162919.81;4995353;28;20505;-65
2022/09/27 05:04:41;;;;;;;4.25;2.40;;;;;;;9.05;100.00;162930.59;4993606;28;20414;-64
2022/09/27 05:07:06;;;;;;;8.70;3.28;;;;;;;9.02;100.00;162922.53;4994911;28;20038;-62
2022/09/27 05:09:31;;;;;;;6.85;3.67;;;;;;;8.99;100.00;162914.41;4992484;28;20054;-61
2022/09/27 05:11:57;;;;;;;13.90;2.60;;;;;;;8.91;100.00;162892.81;4994848;28;20531;-61
2022/09/27 05:14:23;;;;;;;6.65;2.70;;;;;;;8.91;100.00;162892.81;4993175;28;20097;-61
2022/09/27 05:16:49;;;;;;;5.75;2.83;;;;;;;8.88;100.00;162887.47;4994773;28;20022;-61
2022/09/27 05:19:15;;;;;;;17.10;4.38;;;;;;;8.94;100.00;162900.94;4993023;28;20065;-61
2022/09/27 05:21:40;;;;;;;9.60;3.40;;;;;;;8.96;100.00;162906.34;4994520;28;20026;-61
2022/09/27 05:24:05;;;;;;;6.55;3.20;;;;;;;9.02;100.00;162922.53;5000043;28;20034;-60
2022/09/27 05:26:30;;;;;;;10.50;3.20;;;;;;;9.00;100.00;162917.13;5005275;28;20030;-60
2022/09/27 05:28:56;;;;;;;7.82;2.60;;;;;;;9.00;100.00;162917.13;4993253;28;20042;-60
2022/09/27 05:31:21;;;;;;;10.32;3.47;;;;;;;8.96;100.00;162906.34;4994436;28;20050;-60
2022/09/27 05:33:46;;;;;;;6.88;2.55;;;;;;;8.82;100.00;162869.94;4993436;28;20041;-61
2022/09/27 05:36:12;;;;;;;10.68;4.43;;;;;;;8.77;100.00;162857.78;4994373;28;20386;-60
2022/09/27 05:38:37;;;;;;;11.57;3.05;;;;;;;8.69;100.00;162837.59;4989368;28;20042;-61
2022/09/27 05:41:04;;;;;;;9.45;2.97;;;;;;;8.65;100.00;162826.78;5006327;28;20377;-61
2022/09/27 05:43:30;;;;;;;25.95;4.13;;;;;;;8.61;100.00;162814.63;4993001;28;20124;-60
2022/09/27 05:45:55;;;;;;;11.23;2.53;;;;;;;8.60;100.00;162811.97;4978320;28;20034;-61
2022/09/27 05:48:21;;;;;;;8.48;2.80;;;;;;;8.64;100.00;162822.75;4973490;28;20082;-60
2022/09/27 05:50:46;;;;;;;11.73;3.60;;;;;;;8.50;100.00;162787.72;4974818;28;20015;-61
2022/09/27 05:53:12;;;;;;;12.75;3.05;;;;;;;8.72;100.00;162844.31;4974698;28;20475;-61
2022/09/27 05:55:37;;;;;;;10.55;3.30;;;;;;;8.70;100.00;162840.28;4973485;28;20046;-60
2022/09/27 05:58:05;;;;;;;7.03;2.35;;;;;;;8.72;100.00;162844.31;4973516;28;20030;-61
2022/09/27 06:00:31;;;;;;;12.45;3.15;;;;;;;8.70;100.00;162838.91;4988628;28;20085;-61
2022/09/27 06:02:59;;;;;;;13.48;5.20;;;;;;;8.64;100.00;162822.75;5008764;28;20034;-60
2022/09/27 06:05:27;;;;;;;5.28;4.13;;;;;;;8.60;100.00;162811.97;4992220;28;20038;-61
2022/09/27 06:07:57;;;;;;;4.97;3.08;;;;;;;8.49;100.00;162785.00;4994096;28;20040;-61
2022/09/27 06:10:23;;;;;;;4.85;2.97;;;;;;;8.47;100.00;162779.59;4992039;28;20051;-60
2022/09/27 06:12:49;;;;;;;10.27;3.60;;;;;;;8.46;100.00;162775.50;4992399;28;20048;-60
2022/09/27 06:15:14;;;;;;;10.38;2.88;;;;;;;8.44;100.00;162770.13;4991741;28;20050;-60
2022/09/27 06:17:40;;;;;;;16.40;3.15;;;;;;;8.40;100.00;162760.69;4993480;28;20034;-60
2022/09/27 06:20:07;;;;;;;9.30;3.55;;;;;;;8.44;100.00;162770.13;4991679;28;20042;-60
2022/09/27 06:22:33;;;;;;;20.33;3.47;;;;;;;8.48;100.00;162782.28;4994086;28;20126;-60
2022/09/27 06:24:59;;;;;;;13.23;3.20;;;;;;;8.54;100.00;162798.47;4999426;28;20039;-61
2022/09/27 06:27:25;;;;;;;22.13;5.95;;;;;;;8.63;100.00;162820.03;4993639;28;20084;-60
2022/09/27 06:29:50;;;;;;;15.88;4.40;;;;;;;8.68;100.00;162833.50;4992042;28;20162;-60
2022/09/27 06:32:16;;;;;;;17.17;5.82;;;;;;;8.73;100.00;162847.03;4993347;28;20057;-60
2022/09/27 06:34:41;;;;;;;27.02;3.83;;;;;;;8.83;100.00;162873.94;4991928;28;20092;-60
2022/09/27 06:37:06;;;;;;;21.40;5.15;;;;;;;8.97;100.00;162909.06;4993100;28;20034;-60
2022/09/27 06:39:33;;;;;;;8.00;3.22;;;;;;;9.13;100.00;162952.16;4992088;28;20034;-60
2022/09/27 06:41:59;;;;;;;10.93;3.08;;;;;;;9.19;100.00;162968.38;4993287;28;20030;-60
2022/09/27 06:44:25;;;;;;;11.43;3.30;;;;;;;9.17;100.00;162962.97;4992302;28;20049;-61
2022/09/27 06:46:51;;;;;;;8.82;4.65;;;;;;;9.25;100.00;162983.19;4993518;28;20540;-60
2022/09/27 06:49:18;;;;;;;12.35;4.82;;;;;;;9.29;100.00;162992.63;4991381;28;20093;-60
2022/09/27 06:51:43;;;;;;;18.25;4.53;;;;;;;9.51;100.00;163051.97;4993403;28;20023;-60
2022/09/27 06:54:09;;;;;;;25.60;5.22;;;;;;;9.66;100.00;163089.75;4991373;28;20520;-61
2022/09/27 06:56:34;;;;;;;14.85;4.53;;;;;;;9.93;100.00;163159.94;4992702;28;20518;-61
2022/09/27 07:01:44;;;;;;;6.85;3.65;;;;;;;10.10;100.00;163205.78;4983119;28;20100;-60
2022/09/27 07:04:12;;;;;;;9.20;4.30;;;;;;;10.13;100.00;163213.88;4998265;28;20038;-61
2022/09/27 07:06:37;;;;;;;6.40;2.30;;;;;;;10.00;100.00;163178.81;5012819;28;20022;-61
2022/09/27 07:09:05;;;;;;;10.82;5.22;;;;;;;10.10;100.00;163205.78;4994268;28;20830;-60
2022/09/27 07:11:35;;;;;;;7.75;2.47;;;;;;;10.29;100.00;163254.38;4992291;28;20030;-60
2022/09/27 07:14:00;;;;;;;13.93;2.72;;;;;;;10.29;100.00;163254.38;4991386;28;20046;-61
2022/09/27 07:16:26;;;;;;;9.07;3.30;;;;;;;10.26;100.00;163246.25;4992886;28;20026;-60
2022/09/27 07:18:51;;;;;;;6.63;2.35;;;;;;;10.23;100.00;163238.19;4989609;28;20528;-60
2022/09/27 07:21:17;;;;;;;9.85;3.38;;;;;;;10.19;100.00;163227.38;4992427;28;20034;-61
2022/09/27 07:23:42;;;;;;;7.13;3.92;;;;;;;10.36;100.00;163273.25;4991560;28;20041;-61
2022/09/27 07:26:09;;;;;;;11.63;3.63;;;;;;;10.59;100.00;163332.72;4990236;28;20022;-62
2022/09/27 07:28:35;;;;;;;10.30;3.28;;;;;;;10.78;100.00;163384.00;4997638;28;20022;-58
2022/09/27 07:31:02;;;;;;;6.50;3.03;;;;;;;10.82;100.00;163392.09;4991281;28;20050;-60
2022/09/27 07:33:27;;;;;;;11.35;3.33;;;;;;;10.78;100.00;163384.00;4990503;28;20038;-59
2022/09/27 07:35:53;;;;;;;14.20;3.35;;;;;;;10.47;100.00;163303.00;4992295;28;20092;-60
2022/09/27 07:38:18;;;;;;;10.68;4.00;;;;;;;10.43;100.00;163290.84;4990393;28;20408;-59
2022/09/27 07:40:44;;;;;;;5.20;3.65;;;;;;;10.36;100.00;163273.25;4991346;28;20022;-60
2022/09/27 07:43:11;;;;;;;3.13;2.25;;;;;;;10.43;100.00;163290.84;4992092;28;20030;-59
2022/09/27 07:45:36;;;;;;;6.28;2.58;;;;;;;10.63;100.00;163343.50;5009816;28;20409;-60
2022/09/27 07:48:06;;;;;;;9.82;3.03;;;;;;;10.71;100.00;163365.09;4998559;28;20035;-58
2022/09/27 07:50:32;;;;;;;9.40;2.67;;;;;;;10.88;100.00;163408.28;4990792;28;20099;-58
2022/09/27 07:52:57;;;;;;;9.60;2.55;;;;;;;11.11;100.00;163470.41;4991902;28;20122;-59
2022/09/27 07:55:23;;;;;;;12.50;3.85;;;;;;;-146.58;100.00;69501.63;4990289;28;20038;-60
2022/09/27 07:57:49;;;;;;;4.90;1.98;;;;;;;-146.58;100.00;69501.63;4992289;28;20547;-59
2022/09/27 08:00:18;;;;;;;5.75;3.15;;;;;;;11.62;100.00;163602.75;4989616;28;20042;-59
2022/09/27 08:02:44;;;;;;;12.38;4.53;;;;;;;-146.58;100.00;69501.63;4991453;28;20053;-60
2022/09/27 08:05:11;;;;;;;13.75;3.70;;;;;;;-146.58;100.00;69501.63;4990005;28;20160;-60
2022/09/27 08:07:38;;;;;;;8.32;2.65;;;;;;;-146.58;100.00;69501.63;4991949;28;20026;-59
2022/09/27 08:10:04;;;;;;;7.25;4.22;;;;;;;-146.58;100.00;69501.63;4989835;28;20038;-59
2022/09/27 08:12:29;;;;;;;8.40;4.05;;;;;;;-146.58;100.00;69501.63;4991771;28;20442;-59
2022/09/27 08:14:57;;;;;;;4.88;2.65;;;;;;;-146.58;100.00;69501.63;4990533;28;20042;-59
2022/09/27 08:17:22;;;;;;;5.32;3.10;;;;;;;-146.58;100.00;69501.63;4990982;28;20062;-59
2022/09/27 08:19:48;;;;;;;4.47;2.20;;;;;;;-146.58;100.00;69501.63;4990189;28;20061;-59
2022/09/27 08:22:15;;;;;;;7.50;3.10;;;;;;;-146.58;100.00;69501.63;4991663;28;20026;-59
2022/09/27 08:24:40;;;;;;;11.80;2.60;;;;;;;-146.58;100.00;69501.63;4990177;28;20417;-60
2022/09/27 08:27:06;;;;;;;6.25;2.33;;;;;;;-146.58;100.00;69501.63;4991628;28;20037;-59
2022/09/27 08:29:32;;;;;;;7.50;2.00;;;;;;;-146.58;100.00;69501.63;4989887;28;20629;-59
2022/09/27 08:31:58;;;;;;;4.75;3.33;;;;;;;-146.58;100.00;69501.63;4991395;28;20141;-59
2022/09/27 08:34:23;;;;;;;7.20;2.25;;;;;;;-146.58;100.00;69501.63;4990079;28;20034;-59
2022/09/27 08:36:49;;;;;;;7.40;2.20;;;;;;;-146.58;100.00;69501.63;4991679;28;20034;-59
2022/09/27 08:39:14;;;;;;;6.80;2.35;;;;;;;-146.58;100.00;69501.63;4989022;28;20076;-59
2022/09/27 08:41:54;;;;;;;3.38;2.35;;;;;;;-146.58;100.00;69501.63;4991541;28;20022;-60
2022/09/27 08:44:47;;;;;;;4.65;2.42;;;;;;;-146.58;100.00;69501.63;4989990;28;20103;-59
2022/09/27 08:47:28;;;;;;;3.47;2.58;;;;;;;-146.58;100.00;69501.63;4990700;28;20456;-59
2022/09/27 08:50:29;;;;;;;2.70;2.20;;;;;;;-146.58;100.00;69501.63;4989941;28;20053;-59
2022/09/27 08:53:01;;;;;;;7.70;1.63;;;;;;;-146.58;100.00;69501.63;4991413;28;20161;-59
2022/09/27 08:55:31;;;;;;;8.35;3.28;;;;;;;-146.58;100.00;69501.63;4989870;28;20071;-59
2022/09/27 08:57:58;;;;;;;1.80;1.65;;;;;;;-146.58;100.00;69501.63;4991808;28;20052;-60
2022/09/27 09:00:25;;;;;;;8.23;2.05;;;;;;;-146.58;100.00;69501.63;4989360;28;20461;-58
2022/09/27 09:02:51;;;;;;;2.80;1.48;;;;;;;12.14;100.00;163737.88;4989594;28;20573;-59
2022/09/27 09:05:27;;;;;;;4.35;1.63;;;;;;;12.52;100.00;163837.88;5001457;28;20046;-59
2022/09/27 09:08:05;;;;;;;6.20;1.83;;;;;;;12.49;100.00;163829.75;4991206;28;20069;-59
2022/09/27 09:13:57;;;;;;;1.73;1.33;;;;;;;12.82;100.00;163916.28;4990032;28;20545;-59
2022/09/27 09:16:41;;;;;;;2.85;1.80;;;;;;;12.79;100.00;163909.53;4990649;28;20030;-59
2022/09/27 09:19:09;;;;;;;5.45;2.20;;;;;;;12.80;100.00;163912.22;4970290;28;20031;-59
2022/09/27 09:21:52;;;;;;;7.50;2.55;;;;;;;12.82;100.00;163916.28;4986782;28;20042;-59
2022/09/27 09:24:44;;;;;;;5.35;1.58;;;;;;;12.75;100.00;163897.34;4988467;28;20406;-59
2022/09/27 09:27:17;;;;;;;4.40;1.60;;;;;;;12.85;100.00;163924.34;4971676;28;20034;-59
2022/09/27 09:29:57;;;;;;;4.43;1.70;;;;;;;12.97;100.00;163956.81;4977595;28;20433;-59
2022/09/27 09:33:01;;;;;;;5.88;1.42;;;;;;;12.94;100.00;163948.69;4992706;28;20502;-59
2022/09/27 09:35:39;;;;;;;3.92;2.00;;;;;;;12.72;100.00;163889.22;4992895;28;20042;-59
2022/09/27 09:38:14;;;;;;;3.83;2.30;;;;;;;12.74;100.00;163894.63;4994355;28;20437;-59
2022/09/27 09:40:46;;;;;;;3.45;2.17;;;;;;;12.94;100.00;163948.69;4991499;28;20108;-58
2022/09/27 09:43:23;;;;;;;5.78;2.15;;;;;;;12.95;100.00;163951.41;4994454;28;20034;-59
2022/09/27 09:45:55;;;;;;;5.87;2.43;;;;;;;13.04;100.00;163973.03;4993420;28;20498;-59
2022/09/27 09:48:58;;;;;;;7.85;1.48;;;;;;;13.19;100.00;164013.59;4992813;28;20034;-59
2022/09/27 09:51:34;;;;;;;4.35;1.63;;;;;;;13.10;100.00;163989.25;4991189;28;20056;-59
2022/09/27 09:54:31;;;;;;;4.32;1.30;;;;;;;13.23;100.00;164024.38;4992608;28;20397;-59
2022/09/27 09:57:04;;;;;;;4.93;1.55;;;;;;;12.80;100.00;163910.84;4994760;28;20053;-59
2022/09/27 09:59:42;;;;;;;4.50;1.48;;;;;;;12.70;100.00;163886.50;4992411;28;20073;-59
2022/09/27 10:02:30;;;;;;;3.40;1.83;;;;;;;13.04;100.00;163973.03;4993635;28;20035;-58
2022/09/27 10:04:56;;;;;;;8.27;1.48;;;;;;;13.13;100.00;163997.38;4992809;28;20058;-59
2022/09/27 10:07:23;;;;;;;26.35;1.83;;;;;;;13.05;100.00;163975.75;4993743;28;20030;-59
2022/09/27 10:09:50;;;;;;;3.28;2.20;;;;;;;13.08;100.00;163983.81;4992187;28;20073;-59
2022/09/27 10:12:15;;;;;;;2.75;1.27;;;;;;;13.50;100.00;164094.78;4980524;28;20039;-59
2022/09/27 10:14:46;;;;;;;2.70;1.42;;;;;;;-146.58;100.00;69501.63;4984960;28;20050;-58
2022/09/27 10:17:16;;;;;;;3.50;1.45;;;;;;;14.03;100.00;164232.72;4993123;28;20092;-58
2022/09/27 10:19:43;;;;;;;6.18;1.85;;;;;;;13.35;100.00;164054.16;4991579;28;20069;-58
2022/09/27 10:22:27;;;;;;;1.50;1.40;;;;;;;12.62;100.00;163863.53;4993621;28;20026;-58
2022/09/27 10:24:56;;;;;;;4.68;2.45;;;;;;;12.19;100.00;163751.38;4992559;28;20043;-59
2022/09/27 10:27:22;;;;;;;;;;;;;;;11.96;100.00;163691.88;4974786;28;20030;-58
2022/09/27 10:29:56;;;;;;;2.22;2.00;;;;;;;11.91;100.00;163678.38;4972368;28;19918;-59
2022/09/27 10:32:31;;;;;;;6.57;2.70;;;;;;;11.92;100.00;163681.09;4973716;28;20050;-59
2022/09/27 10:35:29;;;;;;;7.47;2.22;;;;;;;12.06;100.00;163718.97;4972902;28;20501;-59
2022/09/27 10:38:34;;;;;;;10.90;2.42;;;;;;;12.07;100.00;163720.28;4973906;28;20034;-59
2022/09/27 10:41:23;;;;;;;2.95;2.47;;;;;;;12.21;100.00;163758.13;4969383;28;20045;-59
2022/09/27 10:43:49;;;;;;;7.55;2.33;;;;;;;12.34;100.00;163791.91;4953199;28;20399;-59
2022/09/27 10:46:24;;;;;;;2.28;1.60;;;;;;;12.15;100.00;163740.59;4966376;28;20041;-59
2022/09/27 10:49:16;;;;;;;3.50;2.55;;;;;;;12.15;100.00;163740.59;4976820;28;20050;-58
2022/09/27 10:51:43;;;;;;;3.78;2.38;;;;;;;12.11;100.00;163729.75;4992435;28;20022;-59
2022/09/27 10:54:21;;;;;;;5.28;2.58;;;;;;;12.07;100.00;163720.28;4991165;28;20043;-59
2022/09/27 10:56:55;;;;;;;2.78;2.55;;;;;;;12.00;100.00;163702.75;4993430;28;20026;-58
2022/09/27 10:59:20;;;;;;;2.90;1.98;;;;;;;12.13;100.00;163735.16;4999783;28;20077;-59
2022/09/27 11:01:49;;;;;;;2.22;2.10;;;;;;;12.12;100.00;163733.84;5012597;28;20103;-58
2022/09/27 11:04:27;;;;;;;9.55;2.10;;;;;;;12.10;100.00;163727.09;5011248;28;20378;-58
2022/09/27 11:07:13;;;;;;;2.28;2.10;;;;;;;12.22;100.00;163759.50;5012402;28;20030;-59
2022/09/27 11:10:21;;;;;;;1.75;1.65;;;;;;;12.32;100.00;163786.50;5011133;28;20501;-58
2022/09/27 11:13:05;;;;;;;1.88;1.70;;;;;;;12.37;100.00;163800.03;5012591;28;20702;-58
2022/09/27 11:15:42;;;;;;;3.08;1.60;;;;;;;12.58;100.00;163854.09;5007235;28;20529;-58
2022/09/27 11:18:32;;;;;;;1.95;1.60;;;;;;;12.51;100.00;163835.16;4992805;28;20034;-59
2022/09/27 11:21:13;;;;;;;1.60;1.50;;;;;;;12.60;100.00;163859.50;4991413;28;20034;-58
2022/09/27 11:23:44;;;;;;;1.77;1.67;;;;;;;12.21;100.00;163756.78;4990950;28;20526;-59
2022/09/27 11:26:23;;;;;;;3.72;1.42;;;;;;;12.23;100.00;163762.22;4992512;28;20561;-59
2022/09/27 11:29:01;;;;;;;6.28;2.95;;;;;;;12.28;100.00;163775.72;4991599;28;20048;-59
2022/09/27 11:31:42;;;;;;;2.10;1.70;;;;;;;12.27;100.00;163773.00;4992415;28;20046;-59
2022/09/27 11:34:13;;;;;;;6.32;2.08;;;;;;;12.33;100.00;163789.22;4991006;28;20034;-59
2022/09/27 11:37:08;;;;;;;5.55;2.28;;;;;;;12.24;100.00;163763.53;4991860;28;20088;-58
2022/09/27 11:39:56;;;;;;;6.95;1.67;;;;;;;12.21;100.00;163756.78;4991035;28;20052;-58
2022/09/27 11:42:50;;;;;;;3.97;2.15;;;;;;;12.22;100.00;163759.50;4991959;28;20061;-59
2022/09/27 11:45:24;;;;;;;2.70;1.90;;;;;;;12.31;100.00;163782.47;4989732;28;20066;-58